Jinjya Maru — JI3550 — position and weather

sailwx.info

Track history (hours):
 
Tides and Currents Weather Stations Pressure Air Temp Water Temp Dewpoint Dewpoint Depression Visibility Wind Speed Wind Dir Waves Ship Positions

Jinjya Maru

Last reported at 2018-Jan-20 11:55 UTC. Time now 2018-Jan-20 13:07 UTC.
Position N 34°21' E 134°24'.

Length 48 m.

Type: Tanker. MMSI: 431300336.

Date/timePositionNaut miles runAvg speedWind from/ knotsBaromVisibWave heightAir tempDewpointWater temp
2018-Jan-20 11:55N 34°21' E 134°24'510.7
2018-Jan-20 11:29N 34°19' E 134°29'510.8
2018-Jan-20 11:00N 34°17' E 134°35'1110.1
2018-Jan-20 09:54N 34°07' E 134°42'11 0.4
2018-Jan-19 05:28N 34°03' E 134°54'4 9.6
2018-Jan-19 05:00N 34°07' E 134°57'5 9.7
2018-Jan-19 04:29N 34°12' E 134°60'5 9.7
2018-Jan-19 04:00N 34°16' E 135°03'510.6
2018-Jan-19 03:30N 34°20' E 135°06'5 9.6
2018-Jan-19 03:00N 34°24' E 135°09'5 9.0
2018-Jan-19 02:29N 34°28' E 135°13'4 9.2
2018-Jan-19 02:00N 34°30' E 135°17'5 9.1
2018-Jan-19 01:30N 34°34' E 135°21'4 7.1
2018-Jan-19 00:59N 34°35' E 135°25'1 2.3
2018-Jan-19 00:29N 34°34' E 135°26'0 0.0
2018-Jan-19 00:00N 34°34' E 135°26'0 0.0
2018-Jan-18 23:30N 34°34' E 135°26'0 0.0
2018-Jan-18 22:57N 34°34' E 135°26'0 0.5
2018-Jan-18 22:30N 34°34' E 135°25'2 3.4
2018-Jan-18 22:00N 34°35' E 135°27'1 1.0
2018-Jan-18 21:27N 34°35' E 135°28'0 0.1
2018-Jan-18 20:57N 34°35' E 135°28'0 0.0
2018-Jan-18 20:30N 34°35' E 135°28'0 0.0
2018-Jan-18 19:57N 34°35' E 135°28'0 0.0
2018-Jan-18 19:27N 34°35' E 135°28'0 0.0
2018-Jan-18 18:57N 34°35' E 135°28'0 0.0
2018-Jan-18 18:27N 34°35' E 135°28'0 0.0
2018-Jan-18 18:00N 34°35' E 135°28'0 0.0
2018-Jan-18 17:27N 34°35' E 135°28'0 0.0
2018-Jan-18 16:57N 34°35' E 135°28'0 0.0
2018-Jan-18 16:27N 34°35' E 135°28'0 0.0
2018-Jan-18 15:57N 34°35' E 135°28'0 0.0
2018-Jan-18 15:29N 34°35' E 135°28'0 0.0
2018-Jan-18 14:56N 34°35' E 135°28'0 0.0
2018-Jan-18 14:26N 34°35' E 135°28'0 0.0
2018-Jan-18 13:56N 34°35' E 135°28'0 0.0
2018-Jan-18 13:26N 34°35' E 135°28'0 0.1
2018-Jan-18 12:56N 34°35' E 135°28'0 0.0
2018-Jan-18 08:46N 34°35' E 135°28'0 0.0
2018-Jan-18 08:28N 34°35' E 135°28'1 3.0
2018-Jan-18 08:00N 34°35' E 135°26'510.1
2018-Jan-18 07:30N 34°36' E 135°20'510.7
2018-Jan-18 07:00N 34°36' E 135°14'510.9
2018-Jan-18 06:30N 34°36' E 135°07'612.9
2018-Jan-18 06:00N 34°37' E 134°59'612.6
2018-Jan-18 05:30N 34°35' E 134°52'710.9
2018-Jan-18 04:52N 34°32' E 134°45'410.8
2018-Jan-18 04:30N 34°30' E 134°40'610.8
2018-Jan-18 03:59N 34°28' E 134°34'  
2018-Jan-11 16:17N 33°23' E 131°50'5 9.2
2018-Jan-11 15:43N 33°28' E 131°48'2 9.4
2018-Jan-11 15:27N 33°30' E 131°47'4 9.3
2018-Jan-11 15:00N 33°34' E 131°47'6 9.6
2018-Jan-11 14:23N 33°40' E 131°47'46 2.7
2018-Jan-10 21:27N 34°00' E 132°36'4 8.8
2018-Jan-10 20:58N 34°03' E 132°41'  
Track history (hours):
 
Tides and Currents Weather Stations Pressure Air Temp Water Temp Dewpoint Dewpoint Depression Visibility Wind Speed Wind Dir Waves Ship Positions

Jinjya Maru

Last reported at 2018-Jan-20 11:55 UTC. Time now 2018-Jan-20 13:07 UTC.
Position N 34°21' E 134°24'.

Length 48 m.

Type: Tanker. MMSI: 431300336.

Date/timePositionNaut miles runAvg speedWind from/ knotsBaromVisibWave heightAir tempDewpointWater temp
2018-Jan-20 11:55N 34°21' E 134°24'510.7
2018-Jan-20 11:29N 34°19' E 134°29'510.8
2018-Jan-20 11:00N 34°17' E 134°35'1110.1
2018-Jan-20 09:54N 34°07' E 134°42'11 0.4
2018-Jan-19 05:28N 34°03' E 134°54'4 9.6
2018-Jan-19 05:00N 34°07' E 134°57'5 9.7
2018-Jan-19 04:29N 34°12' E 134°60'5 9.7
2018-Jan-19 04:00N 34°16' E 135°03'510.6
2018-Jan-19 03:30N 34°20' E 135°06'5 9.6
2018-Jan-19 03:00N 34°24' E 135°09'5 9.0
2018-Jan-19 02:29N 34°28' E 135°13'4 9.2
2018-Jan-19 02:00N 34°30' E 135°17'5 9.1
2018-Jan-19 01:30N 34°34' E 135°21'4 7.1
2018-Jan-19 00:59N 34°35' E 135°25'1 2.3
2018-Jan-19 00:29N 34°34' E 135°26'0 0.0
2018-Jan-19 00:00N 34°34' E 135°26'0 0.0
2018-Jan-18 23:30N 34°34' E 135°26'0 0.0
2018-Jan-18 22:57N 34°34' E 135°26'0 0.5
2018-Jan-18 22:30N 34°34' E 135°25'2 3.4
2018-Jan-18 22:00N 34°35' E 135°27'1 1.0
2018-Jan-18 21:27N 34°35' E 135°28'0 0.1
2018-Jan-18 20:57N 34°35' E 135°28'0 0.0
2018-Jan-18 20:30N 34°35' E 135°28'0 0.0
2018-Jan-18 19:57N 34°35' E 135°28'0 0.0
2018-Jan-18 19:27N 34°35' E 135°28'0 0.0
2018-Jan-18 18:57N 34°35' E 135°28'0 0.0
2018-Jan-18 18:27N 34°35' E 135°28'0 0.0
2018-Jan-18 18:00N 34°35' E 135°28'0 0.0
2018-Jan-18 17:27N 34°35' E 135°28'0 0.0
2018-Jan-18 16:57N 34°35' E 135°28'0 0.0
2018-Jan-18 16:27N 34°35' E 135°28'0 0.0
2018-Jan-18 15:57N 34°35' E 135°28'0 0.0
2018-Jan-18 15:29N 34°35' E 135°28'0 0.0
2018-Jan-18 14:56N 34°35' E 135°28'0 0.0
2018-Jan-18 14:26N 34°35' E 135°28'0 0.0
2018-Jan-18 13:56N 34°35' E 135°28'0 0.0
2018-Jan-18 13:26N 34°35' E 135°28'0 0.1
2018-Jan-18 12:56N 34°35' E 135°28'0 0.0
2018-Jan-18 08:46N 34°35' E 135°28'0 0.0
2018-Jan-18 08:28N 34°35' E 135°28'1 3.0
2018-Jan-18 08:00N 34°35' E 135°26'510.1
2018-Jan-18 07:30N 34°36' E 135°20'510.7
2018-Jan-18 07:00N 34°36' E 135°14'510.9
2018-Jan-18 06:30N 34°36' E 135°07'612.9
2018-Jan-18 06:00N 34°37' E 134°59'612.6
2018-Jan-18 05:30N 34°35' E 134°52'710.9
2018-Jan-18 04:52N 34°32' E 134°45'410.8
2018-Jan-18 04:30N 34°30' E 134°40'610.8
2018-Jan-18 03:59N 34°28' E 134°34'  
2018-Jan-11 16:17N 33°23' E 131°50'5 9.2
2018-Jan-11 15:43N 33°28' E 131°48'2 9.4
2018-Jan-11 15:27N 33°30' E 131°47'4 9.3
2018-Jan-11 15:00N 33°34' E 131°47'6 9.6
2018-Jan-11 14:23N 33°40' E 131°47'46 2.7
2018-Jan-10 21:27N 34°00' E 132°36'4 8.8
2018-Jan-10 20:58N 34°03' E 132°41'  

Dump ship's entire track history